2014-10-03 A11 PB  545  29.84  76  10.5  30.58  12.00  Mid Move Faded Lt  Kiowa Kay Betty  Kb's Fast Sherry  Pat C Luz  8   
2014-09-28 S8 PB  545  29.87  76  10  30.56    Steady Effort, Mid    Crt Quin  Diane Mcbain  Starz Velda  7   
2014-09-16 E7 FL  550  31.52  76  5 32.13  14.90  lost ground str mid  Crv's Sail  Atascocita Tovar  Rab's Amber  8   
2014-09-12 A3 FL  550  31.05  76  7 18  32.32  24.20  Cut Off Early Mid  RocAByChct  BabyTyra  OddJones  8   
2014-09-06 A3 FL  550  31.23  77.5  7 19  32.63  06.80  Dropped Back Early O  StarzBabul  PKaySwetmr  AmfOverUnd  8   
2014-08-31 E5 FL  550  31.4  77  2 1 31.83  07.10  Tiring Homestr Mid  AmfSnysdUp  CryHalibut  ArkansTpaz  8   
2014-08-26 E7 FL  550  31.35  77  1 31.84  04.60  Good Effort Outside  O'gloryDrv  KiowaHero  GatorAl  8   
2014-08-21 E5 FL  550  30.92  76  4 10  31.63  05.30  Faded Homestr Mid  SaraDrive  ArkansTpaz  KwaBestBeB  8   
2014-08-15 E5 FL  550  31.35  77  5 1 31.51  06.40  Faded Homestretch In  Kb'sCasita  ClassyChri  AtasccitEn  8   
2014-08-09 E5 FL  550  31.47  76  1 31.54  10.70  Cleared Trouble 1st  HsHoneyBun  Nyta  KeboVenus  8   
2014-08-05 A5 FL  550  31.15  77  1 4.5  31.46  24.30  Wanted Inside Crowde  BellaWise  CrtKayak  JlCramDady  8   
2014-07-31 E5 FL  550  31.35  76.5  4 3 3.5  31.60  12.20  Fast Start Overtaken  FzzysPinoc  KelsosVrbs  KiowaHero  7   
2014-07-25 A3 FL  550  31.19  77  4 8.5  31.79  27.80  Lost Ground Late Mtk  ItexHeart  Where'sSxy  GrekBoyJon  8   
2014-07-19 A5 FL  550  31.02  77  4 14  32.07  10.10  shuffled early midtr  Arkans Topaz  Sg's Ozzie Smith  Backwood Design  7   
2014-07-13 E5 FL  550  31.17  76  1 12  32.03  04.50  Gaveway Midtrk  Legrettbln  XtremAtack  AtasccitaD  8   
2014-07-08 E5 FL  550  31.2  76  3 2 31.68  02.90  Weakened Inside  P'sCrash  StarzTonya  JlCramDady  8   
2014-07-04 A3 FL  550  31.41  76  4 31.69  05.90  Worked Up In & Out  OtlawsLkeM  Cd'sMrkBrk  BoldLingo  8   
2014-06-27 A1 FL  550    76  10 15  31.75  14.60  collided 1st turn  Atascocita Demi  Roc A By Choctaw  P Kay Orange  8   
2014-06-20 E11 FL  550  31.10  77  3 3 31.40  9.90  nudged late outbid  Gobie First  Kiowa Brandy Kay  Knackered  8   
2014-06-13 E9 FL  550  30.91  77  1 31.82  4.80  led between call out  Fyliss  Atascocita Demi  Goin Crazy Baby  8   
2014-06-07 A10 FL  550  31.43  77  3 31.54  5.70  early factor in &  Fuzzys Boyd  Where's Cyclone  Starz Tartan  8   
2014-05-31 E10 FL  550  32.05  76  2 1 6.5  32.50  05.50  Out Of Gas Late Ins  Dog'sSrnda  Where'sCyc  UniqeNSlek  8   
2014-05-23 E4 NF  550  30.35  76  13 16  31.47  04.70  Hindered 1st Turn Mi  FzzysTmAln  AkayJayLno  Br'sDixeDw  8   
2014-05-18 A4 NF  550  30.3  76  6 30.93  07.50  Couldn't Sustain Dri  Mw'sPecan  SaraDrive  CarlLackey  8   
2014-05-14 A6 NF  550  30.69  76.5  1 31.19  04.70  Early Foot Weakened  OshkoshUnk  Shwmethway  MegaChain  8   
2014-05-08 E10 NF  550  30.47  75  7 11  31.29  20.50  Never In Contention  TrboFirbal  Mw'sFizz  ContrySamy  8   
2014-05-02 E8 NF  550  30.67  75  2 2 .75  30.67  03.60  Took Control Held Ga  ThrillDeal  ArkansOpal  FlyngTatoo  8   
2014-04-28 T4 NF  550  29.94  76  10 23  31.57  00.30  Followed Field Mid  CtGrlnxtdo  FlyngTatoo  KjoQenscrw  8   
2014-04-25 T6 NF  550  30.29  76  4 6.5  30.74  10.00  Lacked Needed Rally  AkayTmDncn  Just AKiss  TrboFreWil  8   
2014-04-21 A6 NF  550  30.32  76  5 10  31.02  13.20  Middle Of The Pack M  B'sItsAstr  BlRhythmBl  FlyngRosta  8   
2014-04-17 T6 NF  550  30.72  76  4 31.23  08.40  Held Position Mid  TkBlackLbl  FlyngRosta  WikiChelsy  7   
2014-04-14 A4 NF  550  30.47  76.5  6 30.81  04.70  Faltered Backstretch  VjWishMLck  BraskaTuly  Santa'sRsL  8   
2014-04-11 A8 NF  550  29.87  75.5  2 10  30.58  07.50  Evenly Distant Show  FzzysJayLn  Qeen'sScep  Just AKiss  8   
2014-04-07 T4 NF  550  30.44  75.5  3 2 hd  30.44  03.80  Large Lead Held On M  AtascctHgh  MarthaMay  FzzysGrfld  8   
2014-04-03 T6 NF  550  29.98  75.5  10 15  31.07  06.90  Not Much Change Ins  FzzysJayLn  OshkoshOrl  AtascoctDg  8   
2014-03-29 A8 NF  550  30.53  76  11 10  31.22  15.30  Impeded 1st Turn Mid  VjWishMLck  FzzysAlDvs  Boc'sCamKt  8   
2014-03-26 A8 NF  550  30.44  76  7 10  31.19  09.30  Weakened Bkstretch M  RockAndRol  Sg'sErnBnk  B'sHeadlnr  8   
2014-03-23 A6 NF  550  30.62  76  5 6 30.62  03.60  Led Box To Wire Mid  NeverCory  Boc'sMcDfy  AmfBstICan  8   
2014-03-20 T4 NF  550  30.44  76  1 1 30.65  11.20  Led Outfinishe Mid  Sg'sErnBnk  O YaDozer  AmfBetThFr  8   
2014-03-16 A4 NF  550  30  76  9 15  31.08  06.20  Always Last Mid  Sg'sErnBnk  FlyingDvln  FzzysBrdPt  8   
2014-03-13 T6 NF  550  30.46  75  5 31.01  05.60  Nudged Out Of Positi  CraigieGen  CryTristan  OYaScooter  8   
2014-03-10 A8 NF  550  30.58  75  4 3 hd  30.58  01.60  Held Diminishing Lea  GrekBoyJon  BeauxDidly  S'sTaliRny  8   
2014-03-07 A3 NF  550  30.59  75  3 2.5  30.76  02.60  Closed Gap Flattened  Kb'sTrilan  HsDragnet  O YaChance  8   
2014-03-03 T4 NF  550  30.32  76  3 2 2.5  30.49  12.40  Ample Lead Run Down  LdWihlBgCy  RaRuby  JaxPryor  8   
2014-02-27 E4 NF  550  30.57  76  4 4 nk  30.60  09.80  Set Pace Outfinished  JustFast  FlyngHlyMn  LdWihlBgCy  8   
2014-02-23 A3 NF  550  30.71  76  1 2 30.71  01.10  Proved To Bee Best I  Kb'sThrdGr  ArkansGert  Capre  8   
2014-02-19 A10 NF  550  30.24  75  12 16  31.42  05.40  Little Impact Mid  TkBlackLbl  O YaChance  Santa'sClr  8   
2014-02-15 A6 NF  550  30.46  76  2 30.82  09.50  Early Pressure No Ra  Jean'sDrcy  RalphLaurn  Boc'sFsttr  8   
2014-02-11 T6 NF  550  30.34  76  5 10  31.02  09.00  Weakened Thru Out Mi  CryTristan  RalphLaurn  Decadnt  8   
2014-02-07 E8 NF  550  30.13  76  1 30.78  03.60  Pressed Pace Faltere  Boc'sMcDfy  O YaChance  HsDragnet  8   
2014-02-03 A3 NF  550  30.15  76  2 1 30.45  05.50  Easy Lead Outrun Lat  O YaShazam  AmfDeadSet  GnCrazyBby  7   
2014-01-30 E6 NF  550  30.51  76  1 30.87  04.10  Outpaced Late  FrdOfRucks  FlyingDvln  CryDory  8   
2014-01-26 T4 NF  550  30.18  77  5 30.69  05.10  4th Place Drive  FlyingNral  MegaNapoli  HustleItUp  8   
2014-01-22 E3 NF  550  30.86  76  1 1 30.99  3.80  gained early lead caugh  Www Manta Ray  Flying Snooki  Just A Kiss  8   
2014-01-18 A3 NF  550  30.27  76  3 3.5  30.52  4.20  early speed no rally ou  O Ya Spider Webb  Flying Snooki  Fuzzys Princess  8   
2014-01-15 A2 NF  550  30.80  76  5 1 31.02  6.40  large lead overmatched  Sylus Drive  Ctw Tatiana  Oshkosh Oriole  8   
2014-01-10 E8 NF  550  30.49  76  9 10  31.17  5.30  lacked needed early foo  Ds Charger  Flying Snooki  Fuzzys Cam Neely  8   
2014-01-07 T8 NF  550  30.68  75  4 6 30.68  2.00  continues on a roll mid  L's Hey Reb  O Ya Tabitha  Gv Iwannabeme  8   
2014-01-04 A3 NF  550  30.49  76  3 2.5  30.66  3.00  within striking range m  Pg Making Hay  Fly Daniel Tosh  Crt Kayak  8   
2013-12-31 T3 NF  550  30.46  75  5 3 30.55  1.80  large lead outfinished   Boc's Sultanswat  Texas Cashmein  Kiowa Kay Fred  8   
2013-12-27 E1 NF  550  30.72  76  5 .5  30.78  3.10  another strong performa  Boc's Pretty Boy  Bns Mahgosteen  Never Cory  8   
2013-12-21 A3 NF  550  30.37  76  4 hd  30.39  6.90  unlikely lt move nipped  Boc's Slugger  Greta's Bahama  Crikey Moses  8   
2013-12-16 T7 NF  550  30.29  76  8 8 4.5  30.29  5.20  johnny was very good mi  Bns Mahgosteen  Backwood Ziva  Rich Legacy  8   
2013-12-13 A7 NF  550  30.40  76  2 3.5  30.64  2.90  lacked needed early spe  Boc's Powerplay  Atascocita Tuffy  Kurt Russell  8   
2013-12-08 A5 NF  550  30.02  76  2 30.53  1.80  good early effort mid  Flyin Tyra Banks  Texas Cash Money  O Ya Pep Boy  8   
2013-12-04 E7 NF  550  30.30  76  7 5 30.37    huge lead caved mid  Feeling My Oats  Boc's Powerplay  Bd Sir James  8   
2013-11-30 A7 NF  550  30.34  76  6 2 30.46  3.10  huge lead tiring lt ins  Fastestgirlntown  Fuzzys Bat Girl  Kb's Triadelphia  8   
2013-11-24 A7 NF  550  30.31  76  2 1 30.54  4.50  led out finished  Freda Of Ruckus  Bd Sir James  Jax Preston  8   
2013-11-20 E11 NF  550  30.50  75.5  31.05  3.70    Ws Oya Elwood  Boc's Fuzzbumper  Atascocita Cece  8   
2013-11-16 A3 NF  550  30.07  76  10 30.71  5.50  no movement ins  Jeansace Inahole  Pilsudski  L's Cable Guy  8   
2013-11-11 T7 NF  550  30.48  76  5 11  31.27  5.60  steady pace no thtreat  Atascocita Birdy  Fuzzys Axl Rose  Wwk Cold July  8   
2013-11-07 E7 NF  550  30.25  76  2 5.5  30.64  4.60  forced pace tiring lt m  Where's Ashlee  Ra Ruby  Kiowa Red Moon  8   
2013-11-02 T3 NF  550  30.57  76  1 2 30.69  4.00  gaveway deep stretch  Quirky Aborigine  Atascocita Ammie  Oshkosh Exon  8   
2013-10-22 E3 FL  550  31.68  75  6 32.29  5.60  tight quarters turns  Flying Marine  Yes Sir I Will  Blazing Cadee  8   
2013-10-18 E9 FL  550  31.65  75  3 7.5  32.17  6.60  crowded gaveway mtk  Backwood Design  Sorted  Amazing Chloe  8   
2013-10-12 A11 FL  550  31.09  76  5 31.49  2.70  rallied despite trouble  Santa's Forbes  Erin Andrews  Rocket Star  8   
2013-10-08 E9 FL  550  31.91  75  3 10  32.61  2.90  blocked far tn mtk  Flying Corrozzo  Fuzzys Kateupton  Blackjack Gus  8   
2013-10-04 E5 FL  550  31.57  75.5  2 4 31.78  5.30  fast start overtaken  Hallo City Zip  Only Peanut  Bartsdrivinround  8   
2013-09-28 E5 FL  550  31.41  76  1 31.70  2.40  early gain outside  Moody Snowball  Flying Alicia B  Atascocita Boyd  8   
2013-09-24 E5 FL  550  31.26  76.5  3 4 hd  31.28  12.20  crowded late ins  Mw's Almond  Blazing Cadee  Bartsdrivinround  8   
2013-09-20 A1 FL  550  31.82  77  2 32.03  5.60  middle move outside  Mega Okaloosa  Flying Alicia B  Silky Soprano  8   
2013-09-12 E1 FL  550  31.23  76  1 1 31.53  4.50  rushed up set pace ins  Jax Autumn  Cd's Doc  Mega Adelaide  8   
2013-09-07 A10 FL  550  31.07  76  13 13  32.00  5.60  hit from behind 1st tur  Fuzzys Bob Hope  Flying Nautica  Sir Jester  8   
2013-09-03 A10 FL  550  31.60  76  5 32.07  18.20  improved steadily mtk  Atascocita Kenan  Jc's Dainty  Odd Roberto  8   
2013-08-29 E8 FL  550  31.63  77  3 31.97  12.10  outfinished midtrk  Take A Chancy  Flying Palermo  Kiowa Dash On  8   
2013-08-24 A10 FL  550  31.10  76  8 10  31.83  4.80  collided 1st turn  Misfit Toy  Atascocita Kenan  Blazing Cadee  8   
2013-08-18 E5 FL  550  31.09  76  4 5 ns  31.09  2.70  built large lead held  Braska Amy  Regall Storm Man  Barts Magic Card  8   
2013-08-15 E9 FL  550  31.29  76  2 31.43  6.00  always close mtk  Hi Maria  Se's Hawker  Ah's Mcdonna  8   
2013-08-09 A1 FL  550  31.31  76  2 1 4.5  31.63  8.20  rushed clear overtaken  Kiowa Dash Mile  Mo's Fast Five  Black Oak Timber  8   
2013-08-03 E9 FL  550  31.19  76  13 13  32.11  2.40  crowded collided 1st  Atascocita Gere  Jar Of Hearts  Loud Linda  8   
2013-07-30 A5 FL  550  31.58  76  4 2 31.73  19.60  long lead caught mtk  I'm A Lucky Guy  Cs Queen Bee  Fuzzys Wide Load  8   
2013-07-26 A6 FL  550  31.19  77  5 31.56  11.60  outfinished outside  Give A Little  Misfit Toy  Bella Choza  8   
2013-07-20 A2 FL  550  30.88  77  5 10  31.60  7.30  lost show photo outs  Cs Queen Anne  Mega Dorada  Hi Maria  8   
2013-07-16 A8 FL  550  31.18  76  3 31.58  7.20  shuffled wide 1st evenl  Greta's Bahama  Kiowa Kay Fred  Santa's Pearl  8   
2013-07-05 E11 FL  550  31.90  76  4 4 2.5  31.90  4.50  left them early outs  Fastestgirlntown  O Ya Gunner  Bi's Fagen  8   
2013-06-29 A1 FL  550  31.84  76  3 3 hd  31.86  2.90  wide late caught  Hs Nelson  Flyin John Elway  Braska Ravioli  8   
2013-06-23 E5 FL  550  31.29  77  5 8.5  31.88  3.80  shuffled wide 1st  Rockwithmewhisky  Crazybobella  Rck Mystic River  8   
2013-06-18 A11 FL  550  31.61  77  2 5.5  31.99  3.10  rushed up caught mtk  Se's Comma Star  Regall Storm Man  Zamperini  8   
2013-06-11 E11 FL  550  32.05  77  1 .5  32.09  2.40  always close outs  Clg's Connor  San Tan Quiktrip  Crazybobear  8   
2013-06-04 E1 FL  550  32.52  77  2 3 32.59  3.00  sprinted clear caught  Boc's Vexer  Backwood Design  Slatex Radon  8   
2013-05-25 T1 NF  550  30.24  76  6 2 30.43  10.90  huge lead outrun late  Crt Valor  Uhaul Mack  Regall Conan  8   
2013-05-20 T3 NF  550  30.05  76.5  1 30.63  3.70  best of the rest outs  Fuzzys Axl Rose  Atascocita Daido  Starz Tonya  8   
2013-05-15 T8 NF  550  31.17  76  1 30.63  2.80  stalked leader no rally  Cry Chief  Racing Fool  Fuzzys Fresno  8   
2013-05-10 A3 NF  550  30.54  75  5 ns  30.55  3.10  closing with every stri  Candy  Cher Lloyd  Nitro Shirley  8   
2013-05-04 T3 NF  550  30.47  76  4 31.05  4.00  moderate pace mid  Summer Of Soul  Ribsy  Gable Go Bethany  8   
2013-05-01 T6 NF  550  30.48  76  4 30.99  10.70  in striking range no ra  Where's My Time  Atascocita Kenan  Hs Nelson  8   
2013-04-27 A3 NF  550  30.06  76  5 7.5  30.59  1.80  lacked needed rally mid  Mw's Pecan  Slatex Monet  Mega Jerez  8   
2013-04-24 A4 NF  550  30.18  76  9 11  30.97  6.50  jostled wide 1st tn mid  Fuzzys Fancy  Jump Over Stars  Gable Cristo  8   
2013-04-19 E6 NF  550  30.62  76  12 10  31.36  7.20  failed to respond outs  Wwk Cold July  Backwood Cheetah  Gable Honoria  8   
2013-04-15 T4 NF  550  30.15  76.5  6 8.5  30.75  5.10  tiring late outs  Amf Best I Can  Downings Destiny  Gable Honoria  8   
2013-04-12 A4 NF  550  30.27  76  6 7.5  30.80  6.40  clearly second best out  Hs Jennings  Kb's Millsap  Amf Bet The Farm  8   
2013-04-09 A4 NF  550  29.89  77  5 6.5  30.34  8.00  even effort mid  Flying Dimarco  Braska Trent  Kb's Vaughn  8   
2013-04-05 E10 NF  550  30.68  76  4 6 2.5  30.68  4.30  huge lead coasted home  Crt Valor  Barts Commodity  Superior Evil  8   
2013-03-30 E2 NF  550  30.56  76.5  1 hd  30.58  3.30  just missed outs  Mega Nitrogen  Ale Rob  Bold Betsy  8   
2013-03-27 A8 NF  550  30.42  76.5  1 4.5  30.74  7.10  forced pace tiring late  Cry Eleanor  Ale Tatum  Downings Destiny  8   
2013-03-22 E10 NF  550  30.08  76  2 30.51  4.50  early pressure no rally  Jax Landon  Hs Texoma  Flying Dexter  8   
2013-03-17 T4 NF  550  30.15  77  7 10  30.85  9.70  not a factor ins  Now Didya  Fuzzys Mini Me  Atascocita Birdy  8   
2013-03-13 E6 NF  550  30.10  75  4 8.5  30.69  8.00  middle of the pack mid  J's Robin  Kay Kiowa Rocky  Wwk Cold July  8   
2013-03-09 A4 NF  550  30.05  77  2 3.5  30.30  5.60  chased to no avail mid  Red Rocker  Boc's Mc Dandy  U Too Serena  8   
2013-03-04 T4 NF  550  30.29  76  5 30.73  11.30  middle move flattened m  Crt Outstanding  Hs Nelson  Kiowa Ww Simple  8   
2013-03-01 A6 NF  550  29.83  76  12 18  31.11  4.10  tiring late ins  Flying Dimarco  Fuzzys Dilbert  Kiowa Ww Simple  8   
2013-02-24 T4 NF  550  30.02  76  4 30.36  12.50  early advance midtrk  Tj Liveaction  Flying Noralie  Kk's Trojheim  8   
2013-02-20 A4 NF  550  30.40  76  3 30.60  6.90  late rush flattened mid  Sg's Archer  Flying Plaxico  Ws Oya Elwood  8   
2013-02-16 A6 NF  550  30.26  75  2 1 30.53  8.00  set pressured pace game  Fuzzys Mini Me  L's Rovi  Major Powers  8   
2013-02-13 A4 NF  550  30.53  76  8 7.5  31.06  2.90  strong middle move mid  Nitro Flipside  Boc's Zamboni  Atascocita Birdy  8   
2013-02-09 A8 NF  550  30.23  76.5  5 30.43  5.30  no match for winner mid  May's Hester  Bankruptcy Plan  Kalamity Drive  8   
2013-02-05 A6 NF  550  30.31  77  10 10  31.02  4.80  outrushed no factor mid  Bankruptcy Plan  Lookie Lou  Fuzzys Fat Cat  8   
2013-02-01 E10 NF  550  30.14  76  5 2 1.5  30.25  4.40  large lead caught ins  Superior Panama  Wwk Cold July  Santa's Toyboy  8   
2013-01-28 A4 NF  550  30.14  76.5  3 30.42  3.80  early factor no finish   Gable Kid Chaos  Bruno Of Ruckus  Santa's Toyboy  8   
2013-01-25 A4 NF  550  30.12  77  4 6 30.12  10.00  on cruise control ins  Gable Kid Chaos  Ww's Cyclops  Moonshot  8   
2013-01-21 A4 NF  550  30.51  77  1 2.5  30.68  6.00  pressed pace no rally m  Gable Kid Chaos  Ww's Cyclops  Superior Product  8   
2013-01-17 E5 NF  550  30.36  77  4 30.77  6.90  early speed outrun late  Barts Mickey  Fuzzys Fat Cat  Boc's Rapunzel  8   
2013-01-13 A4 NF  550  30.21  77  1 30.56  5.60  never far off mid  Amf Bounce Back  Hs Mag  Never In A Bind  8   
2013-01-09 A10 NF  550  30.10  75  5 5 30.10  2.00  blasted to lead easily   L's Zakaryscott  Shante's Halo  Nimby Caster  8   
2013-01-04 A3 NF  550  30.17  75  4 30.61  1.30  held steady mid  Tk Can Opener  Ginger Lynn  Pg Hey Bubba  8   
2012-12-30 A4 NF  550  30.46  76  1 .5  30.52  3.20  shadowed leader to line  Fuzzys Fat Cat  L's Zakaryscott  Kb's Hood Winker  8   
2012-12-26 E10 NF  550  30.42  76  8 30.91  2.20  mid move evened out ins  Kastle King  Fuzzys Leonard  Jc's Arlene  8   
2012-12-21 A6 NF  550  30.64  76  5 3 30.77  4.60  large lead overmatched   Atascocita Joe  Tequila Please  Fuzzys Fat Cat  8   
2012-12-15 E11 NF  550  30.68  76  1 3 .5  30.68  0.90  held shrinking lead mid  Turbo Irene  Atascocita Calix  Fries And Shake  8   
2012-12-09 A11 NF  550  30.26  76  1 2 nk  30.29  1.80  winning effort mid  Tequila Please  Pg Amaizer  Sg's Redd Foxx  8   
2012-12-05 E7 NF  550  30.42  76  5 3.5  30.66  1.50  closing fast flattened   Hs Jayvee  Kalamity Drive  Hilco Vonda  8   
2012-11-30 E4 NF  550  30.63  76  7 31.06  5.40  jostled wide 1st turn i  Olinda  Cry Tahiti  Atascocita Ayers  8   
2012-11-25 A6 NF  550  30.46  76  5 30.86  16.80  couldnt sustain drive o  Nms Flying Pansy  Holy Buckets  Slatex Trey  8   
2012-11-21 T2 NF  550  30.32  76  10 11  31.15  8.60  shuffled wd 1st tn mid  Hs Mag  Nuge  Se's Eagle Scout  8   
2012-11-16 A1 NF  550  30.30  76  1 1 nk  30.30  3.80  assumed lead determined  Crt Lane  Flying Starchild  Bravo Brutus  8   
2012-11-10 A6 NF  550  30.65  75.5  11 31.27  4.10  never involved mid  Flying Laura Mae  Santa's Toyboy  Ale Rob  8   
2012-11-05 T2 NF  550  30.53  76  2 30.83  18.20  blocked ent stretch mid  Flying Phobos  Aj's Cookie Time  Braska Moodyblue  8   
2012-11-02 A8 NF  550  30.68  76  5 5.5  31.07  1.50  moderate pace outs  Where's My Time  Se's Comma Star  Wwk Spain Pink  8   
2012-10-20 A12 FL  550  31.13  75  1 31.32  1.70  shuffled gaining lt  Hallo One Won  Crt Clint  Gable Target  8   
2012-10-13 A6 FL  550  31.57  76  6.5  32.02  1.40  Crowded Early Clsd  Summer Of Soul  Mackalawishous  Aj's Cookie Time  8   
2012-10-06 E6 FL  550  31.32  76  1 nk  31.35  8.10  Almost Lasted Mid  Indie Man  Night Passion  Ww Kay Tecate  8   
2012-09-30 E8 FL  550  30.93  76  2 31.14  4.00  forced early pace mtk  Slatex Violet  Atascocita Joe  Hs Texoma  8   
2012-09-25 E8 FL  550  31.29  76  12 13  32.26  4.00  blocked 1st turn  Ww's Companion  Atascocita Joe  Hear This  8   
2012-09-21 A4 FL  550  30.91  76  5 10  31.59  1.20  outfinished outside  Kiowa Jordan Rae  Fuzzys Fancy  Mo's Aces High  8   
2012-09-14 A8 FL  550  31.05  76  3 3 .5  31.05  1.30  big lead lasted mtk  Bw's Patriot  Amf Bet The Farm  Hallo Wise Ann  8   
2012-09-08 A4 FL  550  31.01  76  3 4 31.01  1.90  siezed control bkstr  Gable Suzitussie  Bmb Smoke  Bold Betsy  8   
2012-09-04 A10 FL  550  31.92  76  2 4 31.92  3.10  seized control bkstr  Ww's Companion  Mo's Buckle Up  Astar Magicalgal  8   
2012-08-28 E10 FL  550  31.18  76  4 2.5  31.36  1.40  crowded shuffled 1st  Wwk Cold July  Se's Hawker  Nimby Caster  8   
2012-08-26 E10 FL  550            Crt Carson  Flying Federer  Fuzzys Magic Man  8   
2012-08-21 E8 FL  550  31.23  76  5 31.57  5.50  always in the hunt  Ww's Companion  Atascocita Zoom  Gable Suzitussie  8   
2012-08-16 E4 FL  550  30.99  76  3 10  31.69  4.20  held place midtrk  Tk Red Hot  O Ya Leanne  Jessi Colter  8   
2012-08-10 A6 FL  550  31.30  77  3 4 31.30  2.50  sprinted clear lasted m  Flying Watson  Fuzzys Melissa  Atascocita Zaria  8   
2012-08-03 E8 FL  550  31.53  76  2 3 hd  31.53  9.30  big move lasted wide  Wwk Spain Pink  Caspians Place  Atascocita Zaria  8   
2012-07-28 A8 FL  550  31.07  76  3 31.19  6.30  strong effort outs  Kk's Trojheim  Flying Alton  Fuzzys Magic Man  8   
2012-07-21 A8 FL  550  30.96  76  9 11  31.76  6.00  nudged 1st forced out  M's Free Mover  Broomhilda Bones  Fuzzys Melissa  8   
2012-07-14 E10 FL  550  31.50  76  1 3 hd  31.52  5.60  crowded drove caught ou  Mo's Real Mccoy  Genuine Bob  Kb's Acheson  8   
2012-07-08 E10 FL  550  31.12  76  1 1 hd  31.12  6.80  just held on midtrk  Fuzzys Melissa  Sabrina Duncan  Bd Elizabeth  8   
2012-07-03 E4 FL  550  31.32  76  2 31.45  2.60  hit gained outfinished  Crt Matt  Queen Karen  Barts Roughneck  8   
2012-06-28 E4 FL  550  30.95  76  3 5.5  31.34  4.30  well placed early mtk  Mo's Real Mccoy  Kk's Trojheim  Fuzzys Melissa  8   
2012-06-22 A4 FL  550  31.62  76  8 .5  31.67  8.80  strong bkstr gained mtk  Flying Dexter  Mo's Real Mccoy  Fuzzys Fancy  8   
2012-06-16 E4 FL  550  31.08  75  2 5.5  31.46  5.30  collided 1st crowded lt  Bold Betsy  Fuzzys Melissa  Nuge  8   
2012-06-12 A8 FL  550  30.78  76  8 10  31.55  4.80  improved positionouts  Budz Hooch  Where's Yo Daddy  Atascocita Vino  8   
2012-06-07 E10 FL  550  31.63  77  2 2 31.71  3.40  couldnt hold on outs  Roc A By Betty  Hs Nola  New Real Deal  8   
2012-06-01 E10 FL  550  31.28  76  3 4 1.5  31.28  5.10  decisive move far tn  Wkl Breann  Satin Finish  Amf Doing Well  8